Terminal Aerodrome Forecast
Issued by NWS

Home | Current Version | Previous Version | Graphics & Text | Print | Product List | Glossary On
Versions: 1 2 3 4 5 6 7 8 9 10 11 12 13 14
000
FTUS43 KGRB 192300
TAFAUW
TAF
KAUW 192325Z 2000/2024 20009KT P6SM FEW050 BKN080
     FM200500 18006KT P6SM BKN050
     FM201500 20012G19KT P6SM SCT050 BKN250=

USA.gov is the U.S. government's official web portal to all federal, state and local government web resources and services.